Time;durP1;ratioP1;P1;durP2;ratioP2;P2;SDS_P1;SDS_P2;PMS_P1;PMS_P2;Temp;Humidity;BMP_temperature;BMP_pressure;BME280_temperature;BME280_humidity;BME280_pressure;Samples;Min_cycle;Max_cycle;Signal;HPM_P1;HPM_P2
2023/12/19 00:02:11;;;;;;;;;;;;;;;;;;6242730;23;19915;-90
2023/12/19 00:04:37;;;;;;;;;;;;;;;;;;6241730;23;20353;-90
2023/12/19 00:07:03;;;;;;;;;;;;;;;;;;6242388;23;20315;-91
2023/12/19 00:09:29;;;;;;;;;;;;;;;;;;6243159;23;19965;-90
2023/12/19 00:11:55;;;;;;;;;;;;;;;;;;6242746;23;19952;-90
2023/12/19 00:14:20;;;;;;;;;;;;;;;;;;6243736;23;20454;-91
2023/12/19 00:16:47;;;;;;;;;;;;;;;;;;6245390;23;19946;-90
2023/12/19 00:19:12;;;;;;;;;;;;;;;;;;6242128;23;19907;-90
2023/12/19 00:21:38;;;;;;;;;;;;;;;;;;6242336;23;19916;-91
2023/12/19 00:24:04;;;;;;;;;;;;;;;;;;6242686;23;19910;-90
2023/12/19 00:26:30;;;;;;;;;;;;;;;;;;6241692;23;19904;-91
2023/12/19 00:28:56;;;;;;;;;;;;;;;;;;6243037;23;20340;-91
2023/12/19 00:31:22;;;;;;;;;;;;;;;;;;6241950;23;19903;-90
2023/12/19 00:33:48;;;;;;;;;;;;;;;;;;6242619;23;19987;-91
2023/12/19 00:36:14;;;;;;;;;;;;;;;;;;6242881;23;19904;-91
2023/12/19 00:38:40;;;;;;;;;;;;;;;;;;6242982;23;20289;-91
2023/12/19 00:41:06;;;;;;;;;;;;;;;;;;6242905;23;19911;-91
2023/12/19 00:43:32;;;;;;;;;;;;;;;;;;6242714;22;19914;-91
2023/12/19 00:45:57;;;;;;;;;;;;;;;;;;6242567;23;19941;-91
2023/12/19 00:48:25;;;;;;;;;;;;;;;;;;6242923;23;19918;-91
2023/12/19 00:50:51;;;;;;;;;;;;;;;;;;6243763;23;19918;-91
2023/12/19 00:53:17;;;;;;;;;;;;;;;;;;6242419;23;19907;-91
2023/12/19 00:55:42;;;;;;;;;;;;;;;;;;6241724;23;19904;-90
2023/12/19 00:58:08;;;;;;;;;;;;;;;;;;6243292;23;19908;-91
2023/12/19 01:00:34;;;;;;;;;;;;;;;;;;6241374;23;19904;-91
2023/12/19 01:03:03;;;;;;;;;;;;;;;;;;6243417;23;20470;-91
2023/12/19 01:05:29;;;;;;;;;;;;;;;;;;6240755;23;19908;-90
2023/12/19 01:07:55;;;;;;;;;;;;;;;;;;6242785;23;19911;-91
2023/12/19 01:10:21;;;;;;;;;;;;;;;;;;6242850;23;19907;-90
2023/12/19 01:12:47;;;;;;;;;;;;;;;;;;6242320;23;19907;-90
2023/12/19 01:15:13;;;;;;;;;;;;;;;;;;6242251;23;20026;-90
2023/12/19 01:17:39;;;;;;;;;;;;;;;;;;6241546;23;19939;-90
2023/12/19 01:20:05;;;;;;;;;;;;;;;;;;6242549;23;19924;-91
2023/12/19 01:22:31;;;;;;;;;;;;;;;;;;6242399;23;19919;-91
2023/12/19 01:24:57;;;;;;;;;;;;;;;;;;6241616;23;19931;-91
2023/12/19 01:27:23;;;;;;;;;;;;;;;;;;6241034;23;19908;-91
2023/12/19 01:29:48;;;;;;;;;;;;;;;;;;6243082;23;19904;-89
2023/12/19 01:32:14;;;;;;;;;;;;;;;;;;6242042;23;19911;-89
2023/12/19 01:34:40;;;;;;;;;;;;;;;;;;6241649;23;19915;-89
2023/12/19 01:37:09;;;;;;;;;;;;;;;;;;6241995;23;19950;-89
2023/12/19 01:39:35;;;;;;;;;;;;;;;;;;6240423;23;19953;-92
2023/12/19 01:42:02;;;;;;;;;;;;;;;;;;6242282;23;19916;-88
2023/12/19 01:44:28;;;;;;;;;;;;;;;;;;6241881;22;20693;-89
2023/12/19 01:46:54;;;;;;;;;;;;;;;;;;6240725;23;19908;-90
2023/12/19 01:49:20;;;;;;;;;;;;;;;;;;6241411;23;20276;-89
2023/12/19 01:51:46;;;;;;;;;;;;;;;;;;6240566;23;19907;-89
2023/12/19 01:54:12;;;;;;;;;;;;;;;;;;6241151;23;19907;-90
2023/12/19 01:56:38;;;;;;;;;;;;;;;;;;6241319;23;19961;-89
2023/12/19 01:59:10;;;;;;;;;;;;;;;;;;6241063;23;19911;-89
2023/12/19 02:01:36;;;;;;;;;;;;;;;;;;6242264;23;19904;-90
2023/12/19 02:04:02;;;;;;;;;;;;;;;;;;6240105;23;20337;-89
2023/12/19 02:06:28;;;;;;;;;;;;;;;;;;6240854;23;19908;-90
2023/12/19 02:08:54;;;;;;;;;;;;;;;;;;6242703;23;20339;-89
2023/12/19 02:11:20;;;;;;;;;;;;;;;;;;6241342;23;19986;-90
2023/12/19 02:13:46;;;;;;;;;;;;;;;;;;6243577;23;19942;-89
2023/12/19 02:16:13;;;;;;;;;;;;;;;;;;6244027;23;20326;-89
2023/12/19 02:18:39;;;;;;;;;;;;;;;;;;6243618;23;19914;-89
2023/12/19 02:21:05;;;;;;;;;;;;;;;;;;6245164;22;19907;-89
2023/12/19 02:23:31;;;;;;;;;;;;;;;;;;6245148;23;19908;-89
2023/12/19 02:25:57;;;;;;;;;;;;;;;;;;6243673;23;19907;-89
2023/12/19 02:28:23;;;;;;;;;;;;;;;;;;6242404;23;19917;-88
2023/12/19 02:30:49;;;;;;;;;;;;;;;;;;6247665;23;19911;-88
2023/12/19 02:33:15;;;;;;;;;;;;;;;;;;6245548;23;19953;-89
2023/12/19 02:35:41;;;;;;;;;;;;;;;;;;6245191;23;19931;-89
2023/12/19 02:38:07;;;;;;;;;;;;;;;;;;6244920;23;19946;-89
2023/12/19 02:40:33;;;;;;;;;;;;;;;;;;6245787;23;19953;-88
2023/12/19 02:43:01;;;;;;;;;;;;;;;;;;6244167;22;19904;-88
2023/12/19 02:45:30;;;;;;;;;;;;;;;;;;6244665;23;19911;-89
2023/12/19 02:47:56;;;;;;;;;;;;;;;;;;6245394;23;19934;-89
2023/12/19 02:50:22;;;;;;;;;;;;;;;;;;6244615;23;19903;-88
2023/12/19 02:52:48;;;;;;;;;;;;;;;;;;6246044;23;19919;-88
2023/12/19 02:55:13;;;;;;;;;;;;;;;;;;6243316;23;19911;-89
2023/12/19 02:57:39;;;;;;;;;;;;;;;;;;6243136;23;20242;-89
2023/12/19 03:00:06;;;;;;;;;;;;;;;;;;6244506;23;19979;-89
2023/12/19 03:02:32;;;;;;;;;;;;;;;;;;6243762;23;20265;-89
2023/12/19 03:04:58;;;;;;;;;;;;;;;;;;6244010;23;19903;-88
2023/12/19 03:07:23;;;;;;;;;;;;;;;;;;6243981;23;19912;-87
2023/12/19 03:09:50;;;;;;;;;;;;;;;;;;6245065;23;19907;-88
2023/12/19 03:12:15;;;;;;;;;;;;;;;;;;6243831;23;19917;-88
2023/12/19 03:14:41;;;;;;;;;;;;;;;;;;6245403;23;19965;-88
2023/12/19 03:17:07;;;;;;;;;;;;;;;;;;6244529;23;19931;-88
2023/12/19 03:19:34;;;;;;;;;;;;;;;;;;6245566;23;19942;-88
2023/12/19 03:21:59;;;;;;;;;;;;;;;;;;6244489;23;19919;-89
2023/12/19 03:24:28;;;;;;;;;;;;;;;;;;6243795;23;20661;-88
2023/12/19 03:26:54;;;;;;;;;;;;;;;;;;6242027;23;19923;-89
2023/12/19 03:29:21;;;;;;;;;;;;;;;;;;6243755;23;20409;-88
2023/12/19 03:31:47;;;;;;;;;;;;;;;;;;6243753;23;20573;-87
2023/12/19 03:34:13;;;;;;;;;;;;;;;;;;6242737;23;19908;-89
2023/12/19 03:36:39;;;;;;;;;;;;;;;;;;6244249;23;19904;-87
2023/12/19 03:39:05;;;;;;;;;;;;;;;;;;6243082;23;19973;-88
2023/12/19 03:41:31;;;;;;;;;;;;;;;;;;6242793;23;20023;-88
2023/12/19 03:43:57;;;;;;;;;;;;;;;;;;6242704;22;19931;-88
2023/12/19 03:46:23;;;;;;;;;;;;;;;;;;6243048;23;19907;-87
2023/12/19 03:48:49;;;;;;;;;;;;;;;;;;6241691;23;19908;-87
2023/12/19 03:51:15;;;;;;;;;;;;;;;;;;6244462;23;19903;-89
2023/12/19 03:53:41;;;;;;;;;;;;;;;;;;6242694;23;19907;-88
2023/12/19 03:56:07;;;;;;;;;;;;;;;;;;6243643;23;19911;-87
2023/12/19 03:58:33;;;;;;;;;;;;;;;;;;6240368;23;19942;-88
2023/12/19 04:00:58;;;;;;;;;;;;;;;;;;6243251;23;19911;-87
2023/12/19 04:03:24;;;;;;;;;;;;;;;;;;6242623;23;20245;-87
2023/12/19 04:05:50;;;;;;;;;;;;;;;;;;6240921;23;19907;-88
2023/12/19 04:08:16;;;;;;;;;;;;;;;;;;6242150;23;19985;-88
2023/12/19 04:10:42;;;;;;;;;;;;;;;;;;6242435;23;19954;-87
2023/12/19 04:13:08;;;;;;;;;;;;;;;;;;6241065;23;19957;-87
2023/12/19 04:15:34;;;;;;;;;;;;;;;;;;6242725;23;19904;-87
2023/12/19 04:18:00;;;;;;;;;;;;;;;;;;6240617;23;19903;-87
2023/12/19 04:20:26;;;;;;;;;;;;;;;;;;6240984;23;19930;-87
2023/12/19 04:22:52;;;;;;;;;;;;;;;;;;6241039;23;19923;-87
2023/12/19 04:25:17;;;;;;;;;;;;;;;;;;6241564;22;19977;-87
2023/12/19 04:27:43;;;;;;;;;;;;;;;;;;6240354;22;20006;-87
2023/12/19 04:30:09;;;;;;;;;;;;;;;;;;6240403;22;20242;-88
2023/12/19 04:32:35;;;;;;;;;;;;;;;;;;6240221;22;19904;-88
2023/12/19 04:35:01;;;;;;;;;;;;;;;;;;6240482;22;19908;-87
2023/12/19 04:37:27;;;;;;;;;;;;;;;;;;6240371;22;20952;-87
2023/12/19 04:39:54;;;;;;;;;;;;;;;;;;6242338;22;19904;-87
2023/12/19 04:42:19;;;;;;;;;;;;;;;;;;6240377;22;19908;-89
2023/12/19 04:44:45;;;;;;;;;;;;;;;;;;6241601;22;19904;-86
2023/12/19 04:47:11;;;;;;;;;;;;;;;;;;6240234;22;19958;-87
2023/12/19 04:49:37;;;;;;;;;;;;;;;;;;6241502;22;19915;-87
2023/12/19 04:52:04;;;;;;;;;;;;;;;;;;6241119;22;19932;-88
2023/12/19 04:54:30;;;;;;;;;;;;;;;;;;6242057;22;19958;-87
2023/12/19 04:56:56;;;;;;;;;;;;;;;;;;6243020;22;19903;-88
2023/12/19 04:59:22;;;;;;;;;;;;;;;;;;6242577;22;19910;-86
2023/12/19 05:01:48;;;;;;;;;;;;;;;;;;6241609;22;19910;-87
2023/12/19 05:04:14;;;;;;;;;;;;;;;;;;6240419;22;19908;-87
2023/12/19 05:06:40;;;;;;;;;;;;;;;;;;6242692;22;19907;-87
2023/12/19 05:09:06;;;;;;;;;;;;;;;;;;6240978;22;19931;-87
2023/12/19 05:11:32;;;;;;;;;;;;;;;;;;6240525;22;20289;-87
2023/12/19 05:13:58;;;;;;;;;;;;;;;;;;6240369;22;19912;-87
2023/12/19 05:16:24;;;;;;;;;;;;;;;;;;6241306;22;19907;-86
2023/12/19 05:18:50;;;;;;;;;;;;;;;;;;6241221;22;19954;-86
2023/12/19 05:21:16;;;;;;;;;;;;;;;;;;6243074;22;19915;-87
2023/12/19 05:23:42;;;;;;;;;;;;;;;;;;6240479;23;19907;-86
2023/12/19 05:26:08;;;;;;;;;;;;;;;;;;6240702;23;19907;-87
2023/12/19 05:28:34;;;;;;;;;;;;;;;;;;6240093;23;19914;-87
2023/12/19 05:31:00;;;;;;;;;;;;;;;;;;6241369;23;20515;-87
2023/12/19 05:33:26;;;;;;;;;;;;;;;;;;6242937;23;19935;-88
2023/12/19 05:35:52;;;;;;;;;;;;;;;;;;6240646;23;19907;-87
2023/12/19 05:38:18;;;;;;;;;;;;;;;;;;6243127;23;20384;-88
2023/12/19 05:40:44;;;;;;;;;;;;;;;;;;6241548;23;19904;-87
2023/12/19 05:43:10;;;;;;;;;;;;;;;;;;6242739;22;20286;-90
2023/12/19 05:45:36;;;;;;;;;;;;;;;;;;6241353;23;20352;-87
2023/12/19 05:48:02;;;;;;;;;;;;;;;;;;6242655;23;19916;-89
2023/12/19 05:50:28;;;;;;;;;;;;;;;;;;6244191;23;19907;-89
2023/12/19 05:52:54;;;;;;;;;;;;;;;;;;6244835;23;19904;-89
2023/12/19 05:55:20;;;;;;;;;;;;;;;;;;6244971;23;19911;-88
2023/12/19 05:57:46;;;;;;;;;;;;;;;;;;6245049;23;19908;-89
2023/12/19 06:00:12;;;;;;;;;;;;;;;;;;6243396;23;19991;-87
2023/12/19 06:02:38;;;;;;;;;;;;;;;;;;6242788;23;19911;-87
2023/12/19 06:05:07;;;;;;;;;;;;;;;;;;6242619;23;19952;-86
2023/12/19 06:07:33;;;;;;;;;;;;;;;;;;6243872;23;20377;-87
2023/12/19 06:09:59;;;;;;;;;;;;;;;;;;6243968;23;19987;-88
2023/12/19 06:12:25;;;;;;;;;;;;;;;;;;6243244;23;19983;-87
2023/12/19 06:14:50;;;;;;;;;;;;;;;;;;6244899;23;19994;-87
2023/12/19 06:17:16;;;;;;;;;;;;;;;;;;6242423;23;19922;-87
2023/12/19 06:19:44;;;;;;;;;;;;;;;;;;6243365;23;20292;-89
2023/12/19 06:22:10;;;;;;;;;;;;;;;;;;6245386;23;19916;-89
2023/12/19 06:24:36;;;;;;;;;;;;;;;;;;6245075;23;19907;-90
2023/12/19 06:27:02;;;;;;;;;;;;;;;;;;6242969;23;19911;-90
2023/12/19 06:29:27;;;;;;;;;;;;;;;;;;6245026;23;19908;-90
2023/12/19 06:31:53;;;;;;;;;;;;;;;;;;6245687;23;19911;-90
2023/12/19 06:34:19;;;;;;;;;;;;;;;;;;6245777;23;19908;-90
2023/12/19 06:36:45;;;;;;;;;;;;;;;;;;6245196;23;19903;-90
2023/12/19 06:39:11;;;;;;;;;;;;;;;;;;6244526;23;20485;-91
2023/12/19 06:41:37;;;;;;;;;;;;;;;;;;6245047;23;19915;-90
2023/12/19 06:44:03;;;;;;;;;;;;;;;;;;6245211;22;19912;-90
2023/12/19 06:46:29;;;;;;;;;;;;;;;;;;6243662;23;19914;-90
2023/12/19 06:48:56;;;;;;;;;;;;;;;;;;6244560;23;19918;-90
2023/12/19 06:51:22;;;;;;;;;;;;;;;;;;6244604;23;19911;-89
2023/12/19 06:53:47;;;;;;;;;;;;;;;;;;6243956;23;20270;-91
2023/12/19 06:56:13;;;;;;;;;;;;;;;;;;6243049;23;19907;-92
2023/12/19 06:58:39;;;;;;;;;;;;;;;;;;6243688;23;19904;-91
2023/12/19 07:01:06;;;;;;;;;;;;;;;;;;6244767;23;20333;-91
2023/12/19 07:03:32;;;;;;;;;;;;;;;;;;6242862;23;19911;-90
2023/12/19 07:05:59;;;;;;;;;;;;;;;;;;6243945;23;19994;-91
2023/12/19 07:08:24;;;;;;;;;;;;;;;;;;6245423;23;19912;-91
2023/12/19 07:10:50;;;;;;;;;;;;;;;;;;6248149;23;19911;-94
2023/12/19 07:13:16;;;;;;;;;;;;;;;;;;6245926;23;19907;-94
2023/12/19 07:15:44;;;;;;;;;;;;;;;;;;6244871;23;19908;-94
2023/12/19 07:18:11;;;;;;;;;;;;;;;;;;6246270;23;19904;-93
2023/12/19 07:20:37;;;;;;;;;;;;;;;;;;6246071;23;20010;-93
2023/12/19 07:23:03;;;;;;;;;;;;;;;;;;6245685;23;19920;-93
2023/12/19 07:25:29;;;;;;;;;;;;;;;;;;6245866;23;20330;-93
2023/12/19 07:27:56;;;;;;;;;;;;;;;;;;6245165;23;19934;-94
2023/12/19 07:30:22;;;;;;;;;;;;;;;;;;6246451;23;19919;-93
2023/12/19 07:32:48;;;;;;;;;;;;;;;;;;6245983;23;19904;-93
2023/12/19 07:35:15;;;;;;;;;;;;;;;;;;6246012;23;19908;-93
2023/12/19 07:37:41;;;;;;;;;;;;;;;;;;6246227;23;19935;-93
2023/12/19 07:40:10;;;;;;;;;;;;;;;;;;6245589;23;19908;-94
2023/12/19 07:42:36;;;;;;;;;;;;;;;;;;6246961;23;19915;-94
2023/12/19 07:45:03;;;;;;;;;;;;;;;;;;6246494;22;19907;-94
2023/12/19 07:47:28;;;;;;;;;;;;;;;;;;6246248;23;19934;-95
2023/12/19 07:49:54;;;;;;;;;;;;;;;;;;6248778;23;19939;-94
2023/12/19 07:52:20;;;;;;;;;;;;;;;;;;6248983;23;19904;-93
2023/12/19 07:54:46;;;;;;;;;;;;;;;;;;6248321;23;19911;-94
2023/12/19 07:57:14;;;;;;;;;;;;;;;;;;6246582;23;19907;-96
2023/12/19 07:59:39;;;;;;;;;;;;;;;;;;6245456;23;19938;-95
2023/12/19 08:02:06;;;;;;;;;;;;;;;;;;6245739;23;19954;-94
2023/12/19 08:04:32;;;;;;;;;;;;;;;;;;6246140;23;19990;-95
2023/12/19 08:06:58;;;;;;;;;;;;;;;;;;6246549;23;19919;-94
2023/12/19 08:09:24;;;;;;;;;;;;;;;;;;6246112;23;19915;-94
2023/12/19 08:11:50;;;;;;;;;;;;;;;;;;6246728;23;19910;-94
2023/12/19 08:14:16;;;;;;;;;;;;;;;;;;6246424;23;20353;-94
2023/12/19 08:16:42;;;;;;;;;;;;;;;;;;6246500;23;19930;-94
2023/12/19 08:19:07;;;;;;;;;;;;;;;;;;6246417;23;19930;-94
2023/12/19 08:21:34;;;;;;;;;;;;;;;;;;6245994;22;19935;-94
2023/12/19 08:24:03;;;;;;;;;;;;;;;;;;6246542;23;19904;-94
2023/12/19 08:26:29;;;;;;;;;;;;;;;;;;6245786;23;19907;-94
2023/12/19 08:28:55;;;;;;;;;;;;;;;;;;6245462;23;20333;-93
2023/12/19 08:31:21;;;;;;;;;;;;;;;;;;6245764;23;19908;-94
2023/12/19 08:33:47;;;;;;;;;;;;;;;;;;6244515;23;19977;-93
2023/12/19 08:36:13;;;;;;;;;;;;;;;;;;6246142;23;19904;-94
2023/12/19 08:38:40;;;;;;;;;;;;;;;;;;6245951;23;19938;-94
2023/12/19 08:41:06;;;;;;;;;;;;;;;;;;6246592;23;19911;-94
2023/12/19 08:43:32;;;;;;;;;;;;;;;;;;6245459;22;20334;-94
2023/12/19 08:45:58;;;;;;;;;;;;;;;;;;6244833;23;19910;-94
2023/12/19 08:48:24;;;;;;;;;;;;;;;;;;6245328;23;20318;-93
2023/12/19 08:50:51;;;;;;;;;;;;;;;;;;6245353;23;19914;-93
2023/12/19 08:53:17;;;;;;;;;;;;;;;;;;6245905;23;19903;-94
2023/12/19 08:55:46;;;;;;;;;;;;;;;;;;6246175;23;19990;-94
2023/12/19 08:58:12;;;;;;;;;;;;;;;;;;6244949;23;19908;-93
2023/12/19 09:00:56;;;;;;;;;;;;;;;;;;6245891;23;19951;-93
2023/12/19 09:03:23;;;;;;;;;;;;;;;;;;6244938;23;19918;-93
2023/12/19 09:05:50;;;;;;;;;;;;;;;;;;6244047;23;20314;-93
2023/12/19 09:08:15;;;;;;;;;;;;;;;;;;6245186;23;19918;-94
2023/12/19 09:10:41;;;;;;;;;;;;;;;;;;6245490;23;19904;-93
2023/12/19 09:13:07;;;;;;;;;;;;;;;;;;6244092;23;19942;-91
2023/12/19 09:15:35;;;;;;;;;;;;;;;;;;6242685;23;19918;-92
2023/12/19 09:18:00;;;;;;;;;;;;;;;;;;6243947;23;19908;-92
2023/12/19 09:20:26;;;;;;;;;;;;;;;;;;6243501;23;19911;-92
2023/12/19 09:22:52;;;;;;;;;;;;;;;;;;6245884;23;19931;-91
2023/12/19 09:25:18;;;;;;;;;;;;;;;;;;6245940;23;19904;-92
2023/12/19 09:27:46;;;;;;;;;;;;;;;;;;6245004;23;19998;-92
2023/12/19 09:30:12;;;;;;;;;;;;;;;;;;6245751;23;19915;-92
2023/12/19 09:32:38;;;;;;;;;;;;;;;;;;6244845;23;19907;-92
2023/12/19 09:35:04;;;;;;;;;;;;;;;;;;6244313;23;19910;-92
2023/12/19 09:37:29;;;;;;;;;;;;;;;;;;6244362;23;19912;-92
2023/12/19 09:39:55;;;;;;;;;;;;;;;;;;6245932;23;19914;-92
2023/12/19 09:42:21;;;;;;;;;;;;;;;;;;6246120;23;19907;-92
2023/12/19 09:44:47;;;;;;;;;;;;;;;;;;6245734;22;19915;-91
2023/12/19 09:47:14;;;;;;;;;;;;;;;;;;6246669;23;19911;-91
2023/12/19 09:49:40;;;;;;;;;;;;;;;;;;6245350;23;19970;-92
2023/12/19 09:52:06;;;;;;;;;;;;;;;;;;6245112;23;19907;-92
2023/12/19 09:54:32;;;;;;;;;;;;;;;;;;6245344;23;19958;-91
2023/12/19 09:56:59;;;;;;;;;;;;;;;;;;6244167;23;19910;-91
2023/12/19 09:59:25;;;;;;;;;;;;;;;;;;6245242;23;19945;-92
2023/12/19 10:01:53;;;;;;;;;;;;;;;;;;6246192;23;19994;-91
2023/12/19 10:04:19;;;;;;;;;;;;;;;;;;6244162;23;19923;-91
2023/12/19 10:06:45;;;;;;;;;;;;;;;;;;6245129;23;19904;-92
2023/12/19 10:09:15;;;;;;;;;;;;;;;;;;6245803;23;19911;-92
2023/12/19 10:11:41;;;;;;;;;;;;;;;;;;6244548;23;19931;-91
2023/12/19 10:14:07;;;;;;;;;;;;;;;;;;6243798;23;19961;-91
2023/12/19 10:16:36;;;;;;;;;;;;;;;;;;6245358;23;19938;-92
2023/12/19 10:19:02;;;;;;;;;;;;;;;;;;6244081;23;19919;-90
2023/12/19 10:21:28;;;;;;;;;;;;;;;;;;6244495;22;19908;-90
2023/12/19 10:23:54;;;;;;;;;;;;;;;;;;6244306;23;20214;-90
2023/12/19 10:26:20;;;;;;;;;;;;;;;;;;6244149;23;20021;-90
2023/12/19 10:28:47;;;;;;;;;;;;;;;;;;6245023;23;20241;-90
2023/12/19 10:31:15;;;;;;;;;;;;;;;;;;6243545;23;20314;-90
2023/12/19 10:33:41;;;;;;;;;;;;;;;;;;6243397;23;19919;-90
2023/12/19 10:36:07;;;;;;;;;;;;;;;;;;6244637;23;19991;-89
2023/12/19 10:38:33;;;;;;;;;;;;;;;;;;6243573;23;20322;-90
2023/12/19 10:40:59;;;;;;;;;;;;;;;;;;6244736;23;19914;-90
2023/12/19 10:43:25;;;;;;;;;;;;;;;;;;6244421;22;19907;-91
2023/12/19 10:45:51;;;;;;;;;;;;;;;;;;6244855;23;19908;-91
2023/12/19 10:48:17;;;;;;;;;;;;;;;;;;6243518;23;19911;-91
2023/12/19 10:50:43;;;;;;;;;;;;;;;;;;6244972;23;19912;-91
2023/12/19 10:53:09;;;;;;;;;;;;;;;;;;6244251;23;19914;-91
2023/12/19 10:55:35;;;;;;;;;;;;;;;;;;6245394;23;20285;-90
2023/12/19 10:58:02;;;;;;;;;;;;;;;;;;6243854;23;20294;-90
2023/12/19 11:00:30;;;;;;;;;;;;;;;;;;6245693;23;19931;-90
2023/12/19 11:02:57;;;;;;;;;;;;;;;;;;6243609;23;19904;-91
2023/12/19 11:05:23;;;;;;;;;;;;;;;;;;6243284;23;19911;-90
2023/12/19 11:07:48;;;;;;;;;;;;;;;;;;6244369;23;19930;-91
2023/12/19 11:10:14;;;;;;;;;;;;;;;;;;6242851;23;19903;-90
2023/12/19 11:12:41;;;;;;;;;;;;;;;;;;6244089;23;19911;-91
2023/12/19 11:15:07;;;;;;;;;;;;;;;;;;6242864;23;19903;-91
2023/12/19 11:17:32;;;;;;;;;;;;;;;;;;6243813;23;19919;-90
2023/12/19 11:19:58;;;;;;;;;;;;;;;;;;6242163;23;19914;-90
2023/12/19 11:22:25;;;;;;;;;;;;;;;;;;6244227;23;19937;-91
2023/12/19 11:24:51;;;;;;;;;;;;;;;;;;6245914;23;19951;-91
2023/12/19 11:27:17;;;;;;;;;;;;;;;;;;6244237;23;19919;-90
2023/12/19 11:29:46;;;;;;;;;;;;;;;;;;6244143;23;20379;-90
2023/12/19 11:32:15;;;;;;;;;;;;;;;;;;6243029;23;19981;-90
2023/12/19 11:34:41;;;;;;;;;;;;;;;;;;6243766;23;19904;-91
2023/12/19 11:37:07;;;;;;;;;;;;;;;;;;6244312;23;19914;-90
2023/12/19 11:39:33;;;;;;;;;;;;;;;;;;6244546;23;19922;-90
2023/12/19 11:41:59;;;;;;;;;;;;;;;;;;6243122;23;19914;-91
2023/12/19 11:44:25;;;;;;;;;;;;;;;;;;6244687;22;20639;-90
2023/12/19 11:46:51;;;;;;;;;;;;;;;;;;6244130;23;19908;-90
2023/12/19 11:49:17;;;;;;;;;;;;;;;;;;6243137;23;20739;-90
2023/12/19 11:51:43;;;;;;;;;;;;;;;;;;6244452;23;20326;-90
2023/12/19 11:54:10;;;;;;;;;;;;;;;;;;6244791;23;19907;-90
2023/12/19 11:56:36;;;;;;;;;;;;;;;;;;6243684;23;20342;-90
2023/12/19 11:59:02;;;;;;;;;;;;;;;;;;6245249;23;19918;-90
2023/12/19 12:01:28;;;;;;;;;;;;;;;;;;6245124;23;19907;-90
2023/12/19 12:03:54;;;;;;;;;;;;;;;;;;6241945;23;19907;-91
2023/12/19 12:06:20;;;;;;;;;;;;;;;;;;6244293;23;19908;-90
2023/12/19 12:08:46;;;;;;;;;;;;;;;;;;6244686;23;19951;-91
2023/12/19 12:11:12;;;;;;;;;;;;;;;;;;6244497;23;19907;-91
2023/12/19 12:13:38;;;;;;;;;;;;;;;;;;6242163;23;20001;-90
2023/12/19 12:16:05;;;;;;;;;;;;;;;;;;6244554;23;19974;-91
2023/12/19 12:18:31;;;;;;;;;;;;;;;;;;6244193;23;19910;-90
2023/12/19 12:20:57;;;;;;;;;;;;;;;;;;6243793;23;19912;-90
2023/12/19 12:23:23;;;;;;;;;;;;;;;;;;6248691;22;19954;-90
2023/12/19 12:25:49;;;;;;;;;;;;;;;;;;6248947;22;20689;-90
2023/12/19 12:28:17;;;;;;;;;;;;;;;;;;6247793;22;19908;-89
2023/12/19 12:30:44;;;;;;;;;;;;;;;;;;6274714;22;19904;-90
2023/12/19 12:33:14;;;;;;;;;;;;;;;;;;6247941;22;19948;-91
2023/12/19 12:35:40;;;;;;;;;;;;;;;;;;6247957;22;19914;-90
2023/12/19 12:38:17;;;;;;;;;;;;;;;;;;6248672;22;19904;-90
2023/12/19 12:40:43;;;;;;;;;;;;;;;;;;6247169;22;20329;-90
2023/12/19 12:43:09;;;;;;;;;;;;;;;;;;6247593;22;19957;-90
2023/12/19 12:45:34;;;;;;;;;;;;;;;;;;6248870;22;19910;-91
2023/12/19 12:48:00;;;;;;;;;;;;;;;;;;6247702;22;19911;-92
2023/12/19 12:50:26;;;;;;;;;;;;;;;;;;6247797;22;19904;-91
2023/12/19 12:52:52;;;;;;;;;;;;;;;;;;6248884;22;19915;-92
2023/12/19 12:55:18;;;;;;;;;;;;;;;;;;6247645;22;19907;-91
2023/12/19 12:57:44;;;;;;;;;;;;;;;;;;6249159;22;19958;-90
2023/12/19 13:00:10;;;;;;;;;;;;;;;;;;6276034;22;19927;-92
2023/12/19 13:02:38;;;;;;;;;;;;;;;;;;6248439;22;19986;-93
2023/12/19 13:05:04;;;;;;;;;;;;;;;;;;6247109;22;19986;-92
2023/12/19 13:07:30;;;;;;;;;;;;;;;;;;6246272;22;19950;-93
2023/12/19 13:09:56;;;;;;;;;;;;;;;;;;6249114;22;19938;-92
2023/12/19 13:12:22;;;;;;;;;;;;;;;;;;6248384;22;19991;-92
2023/12/19 13:14:48;;;;;;;;;;;;;;;;;;6248674;22;19934;-93
2023/12/19 13:17:14;;;;;;;;;;;;;;;;;;6249163;22;20241;-92
2023/12/19 13:19:40;;;;;;;;;;;;;;;;;;6248186;22;19910;-91
2023/12/19 13:22:06;;;;;;;;;;;;;;;;;;6248006;22;19926;-91
2023/12/19 13:24:33;;;;;;;;;;;;;;;;;;6248361;22;19937;-92
2023/12/19 13:27:00;;;;;;;;;;;;;;;;;;6247878;22;20223;-91
2023/12/19 13:29:26;;;;;;;;;;;;;;;;;;6248776;22;19907;-91
2023/12/19 13:31:52;;;;;;;;;;;;;;;;;;6249326;22;19911;-91
2023/12/19 13:34:18;;;;;;;;;;;;;;;;;;6248084;22;19907;-91
2023/12/19 13:36:44;;;;;;;;;;;;;;;;;;6248237;22;19908;-91
2023/12/19 13:39:19;;;;;;;;;;;;;;;;;;6247547;22;20007;-91
2023/12/19 13:41:45;;;;;;;;;;;;;;;;;;6248887;22;20376;-91
2023/12/19 13:44:11;;;;;;;;;;;;;;;;;;6248315;22;19903;-91
2023/12/19 13:46:40;;;;;;;;;;;;;;;;;;6248521;22;19917;-91
2023/12/19 13:49:06;;;;;;;;;;;;;;;;;;6248445;22;19975;-92
2023/12/19 13:51:32;;;;;;;;;;;;;;;;;;6248936;22;19907;-91
2023/12/19 13:53:58;;;;;;;;;;;;;;;;;;6248262;22;19907;-91
2023/12/19 13:56:24;;;;;;;;;;;;;;;;;;6248565;22;19957;-91
2023/12/19 13:58:51;;;;;;;;;;;;;;;;;;6247892;22;19910;-91
2023/12/19 14:01:17;;;;;;;;;;;;;;;;;;6249350;22;19907;-92
2023/12/19 14:03:43;;;;;;;;;;;;;;;;;;6274638;22;19908;-91
2023/12/19 14:06:09;;;;;;;;;;;;;;;;;;6248028;22;19927;-91
2023/12/19 14:08:36;;;;;;;;;;;;;;;;;;6249776;22;20381;-91
2023/12/19 14:11:02;;;;;;;;;;;;;;;;;;6250241;22;20226;-91
2023/12/19 14:13:28;;;;;;;;;;;;;;;;;;6249282;22;19985;-91
2023/12/19 14:15:54;;;;;;;;;;;;;;;;;;6250923;22;19903;-91
2023/12/19 14:18:21;;;;;;;;;;;;;;;;;;6250318;22;19915;-91
2023/12/19 14:20:47;;;;;;;;;;;;;;;;;;6249779;22;20255;-91
2023/12/19 14:23:13;;;;;;;;;;;;;;;;;;6250151;22;19923;-91
2023/12/19 14:25:39;;;;;;;;;;;;;;;;;;6250591;22;19907;-91
2023/12/19 14:28:06;;;;;;;;;;;;;;;;;;6249333;22;20245;-92
2023/12/19 14:30:32;;;;;;;;;;;;;;;;;;6251033;22;20085;-92
2023/12/19 14:32:58;;;;;;;;;;;;;;;;;;6250792;22;19911;-92
2023/12/19 14:35:24;;;;;;;;;;;;;;;;;;6249961;22;19941;-91
2023/12/19 14:37:50;;;;;;;;;;;;;;;;;;6250100;22;19953;-91
2023/12/19 14:40:17;;;;;;;;;;;;;;;;;;6249390;22;19910;-93
2023/12/19 14:42:43;;;;;;;;;;;;;;;;;;6248337;22;19957;-93
2023/12/19 14:45:09;;;;;;;;;;;;;;;;;;6248527;22;19904;-93
2023/12/19 14:47:35;;;;;;;;;;;;;;;;;;6249798;22;19917;-92
2023/12/19 14:50:00;;;;;;;;;;;;;;;;;;6250064;22;19903;-91
2023/12/19 14:52:27;;;;;;;;;;;;;;;;;;6250097;22;20149;-91
2023/12/19 14:54:53;;;;;;;;;;;;;;;;;;6276955;22;20230;-91
2023/12/19 14:57:19;;;;;;;;;;;;;;;;;;6250305;22;19926;-91
2023/12/19 14:59:45;;;;;;;;;;;;;;;;;;6250593;22;20310;-90
2023/12/19 15:02:11;;;;;;;;;;;;;;;;;;6250268;22;19904;-91
2023/12/19 15:04:37;;;;;;;;;;;;;;;;;;6247760;22;19907;-91
2023/12/19 15:07:03;;;;;;;;;;;;;;;;;;6250085;22;19934;-92
2023/12/19 15:09:28;;;;;;;;;;;;;;;;;;6249416;22;19938;-91
2023/12/19 15:11:54;;;;;;;;;;;;;;;;;;6249454;22;19911;-91
2023/12/19 15:14:20;;;;;;;;;;;;;;;;;;6249276;22;19914;-91
2023/12/19 15:16:46;;;;;;;;;;;;;;;;;;6250299;22;19907;-91
2023/12/19 15:19:12;;;;;;;;;;;;;;;;;;6250682;22;19911;-91
2023/12/19 15:21:38;;;;;;;;;;;;;;;;;;6248952;22;19926;-91
2023/12/19 15:24:04;;;;;;;;;;;;;;;;;;6250351;22;19911;-91
2023/12/19 15:26:30;;;;;;;;;;;;;;;;;;6248925;22;19907;-91
2023/12/19 15:28:56;;;;;;;;;;;;;;;;;;6247826;22;20548;-91
2023/12/19 15:31:22;;;;;;;;;;;;;;;;;;6249170;22;19903;-91
2023/12/19 15:33:48;;;;;;;;;;;;;;;;;;6249638;22;19968;-91
2023/12/19 15:36:14;;;;;;;;;;;;;;;;;;6248753;22;20002;-91
2023/12/19 15:38:40;;;;;;;;;;;;;;;;;;6249863;22;19953;-90
2023/12/19 15:41:06;;;;;;;;;;;;;;;;;;6247991;22;19943;-91
2023/12/19 15:43:32;;;;;;;;;;;;;;;;;;6248337;22;20385;-91
2023/12/19 15:45:58;;;;;;;;;;;;;;;;;;6248101;22;19903;-91
2023/12/19 15:48:24;;;;;;;;;;;;;;;;;;6249139;22;20453;-92
2023/12/19 15:50:50;;;;;;;;;;;;;;;;;;6249115;22;19909;-91
2023/12/19 15:53:16;;;;;;;;;;;;;;;;;;6247836;22;19903;-91
2023/12/19 15:55:51;;;;;;;;;;;;;;;;;;6250155;22;19907;-91
2023/12/19 15:58:17;;;;;;;;;;;;;;;;;;6248499;22;19986;-91
2023/12/19 16:00:44;;;;;;;;;;;;;;;;;;6249769;22;19907;-92
2023/12/19 16:03:10;;;;;;;;;;;;;;;;;;6249235;22;20304;-92
2023/12/19 16:05:36;;;;;;;;;;;;;;;;;;6275071;22;19989;-92
2023/12/19 16:08:03;;;;;;;;;;;;;;;;;;6247276;22;19967;-92
2023/12/19 16:10:29;;;;;;;;;;;;;;;;;;6248998;22;19907;-92
2023/12/19 16:12:55;;;;;;;;;;;;;;;;;;6249235;22;19903;-92
2023/12/19 16:15:20;;;;;;;;;;;;;;;;;;6248549;22;19907;-92
2023/12/19 16:17:46;;;;;;;;;;;;;;;;;;6249511;22;20440;-93
2023/12/19 16:20:12;;;;;;;;;;;;;;;;;;6249443;22;19943;-92
2023/12/19 16:22:39;;;;;;;;;;;;;;;;;;6250551;22;19923;-92
2023/12/19 16:25:05;;;;;;;;;;;;;;;;;;6249284;22;20286;-92
2023/12/19 16:27:34;;;;;;;;;;;;;;;;;;6248871;22;19998;-92
2023/12/19 16:30:00;;;;;;;;;;;;;;;;;;6248825;22;19907;-92
2023/12/19 16:32:26;;;;;;;;;;;;;;;;;;6251029;22;20383;-92
2023/12/19 16:34:52;;;;;;;;;;;;;;;;;;6250140;22;19911;-91
2023/12/19 16:37:18;;;;;;;;;;;;;;;;;;6249225;22;19955;-92
2023/12/19 16:39:44;;;;;;;;;;;;;;;;;;6249861;22;19914;-91